Time;durP1;ratioP1;P1;durP2;ratioP2;P2;SDS_P1;SDS_P2;PMS_P1;PMS_P2;Temp;Humidity;BMP_temperature;BMP_pressure;BME280_temperature;BME280_humidity;BME280_pressure;Samples;Min_cycle;Max_cycle;Signal;HPM_P1;HPM_P2
2022/04/10 00:04:31;;;;;;;;;4.50;4.50;;;;;;;;2;279083459;279083459;-75
2022/04/10 00:12:46;;;;;;;;;8.50;8.50;;;;;;;;2;234067766;234067766;-75
2022/04/10 00:21:47;;;;;;;;;11.00;11.00;;;;;;;;2;279082715;279082715;-75
2022/04/10 00:30:03;;;;;;;;;8.50;8.50;;;;;;;;2;234068339;234068339;-75
2022/04/10 00:39:03;;;;;;;;;5.00;5.00;;;;;;;;2;279083259;279083259;-74
2022/04/10 00:47:18;;;;;;;;;2.00;2.00;;;;;;;;2;234071105;234071105;-74
2022/04/10 00:56:19;;;;;;;;;1.50;1.50;;;;;;;;2;279083009;279083009;-75
2022/04/10 01:04:36;;;;;;;;;15.50;3.50;;;;;;;;2;234070862;234070862;-75
2022/04/10 01:13:36;;;;;;;;;8.00;8.00;;;;;;;;2;279080960;279080960;-75
2022/04/10 01:21:54;;;;;;;;;7.00;7.00;;;;;;;;2;234070365;234070365;-75
2022/04/10 01:30:55;;;;;;;;;6.00;6.00;;;;;;;;2;279082049;279082049;-76
2022/04/10 01:39:11;;;;;;;;;9.00;9.00;;;;;;;;2;234069252;234069252;-75
2022/04/10 01:48:12;;;;;;;;;8.00;4.00;;;;;;;;2;279080726;279080726;-76
2022/04/10 01:56:27;;;;;;;;;19.00;7.00;;;;;;;;2;234068356;234068356;-75
2022/04/10 02:05:28;;;;;;;;;6.50;6.50;;;;;;;;2;279082199;279082199;-75
2022/04/10 02:13:43;;;;;;;;;5.00;5.00;;;;;;;;2;234068671;234068671;-76
2022/04/10 02:22:44;;;;;;;;;6.00;6.00;;;;;;;;2;279079703;279079703;-76
2022/04/10 02:31:00;;;;;;;;;7.50;7.50;;;;;;;;2;234070556;234070556;-76
2022/04/10 02:40:01;;;;;;;;;6.00;6.00;;;;;;;;2;279084689;279084689;-76
2022/04/10 02:48:16;;;;;;;;;16.00;4.50;;;;;;;;2;234069796;234069796;-76
2022/04/10 02:57:17;;;;;;;;;6.00;6.00;;;;;;;;2;279079048;279079048;-76
2022/04/10 03:05:32;;;;;;;;;11.00;11.00;;;;;;;;2;234069347;234069347;-75
2022/04/10 03:14:33;;;;;;;;;8.50;8.50;;;;;;;;2;279081332;279081332;-76
2022/04/10 03:22:48;;;;;;;;;6.50;6.50;;;;;;;;2;234069383;234069383;-76
2022/04/10 03:31:48;;;;;;;;;10.00;10.00;;;;;;;;2;279081222;279081222;-75
2022/04/10 03:40:04;;;;;;;;;13.00;13.00;;;;;;;;2;234070230;234070230;-75
2022/04/10 03:49:04;;;;;;;;;15.00;11.00;;;;;;;;2;279081290;279081290;-75
2022/04/10 03:57:20;;;;;;;;;31.00;16.00;;;;;;;;2;234067060;234067060;-75
2022/04/10 04:06:20;;;;;;;;;18.00;18.00;;;;;;;;2;279080974;279080974;-76
2022/04/10 04:14:36;;;;;;;;;29.00;28.50;;;;;;;;2;234068642;234068642;-75
2022/04/10 04:23:36;;;;;;;;;23.50;23.50;;;;;;;;2;279081172;279081172;-76
2022/04/10 04:31:52;;;;;;;;;23.00;23.00;;;;;;;;2;234070634;234070634;-76
2022/04/10 04:40:52;;;;;;;;;27.00;26.50;;;;;;;;2;279083055;279083055;-75
2022/04/10 04:49:07;;;;;;;;;32.50;21.50;;;;;;;;2;234072985;234072985;-75
2022/04/10 04:58:08;;;;;;;;;22.50;22.50;;;;;;;;2;279084284;279084284;-75
2022/04/10 05:06:25;;;;;;;;;34.50;26.50;;;;;;;;2;234069427;234069427;-76
2022/04/10 05:15:25;;;;;;;;;38.00;27.00;;;;;;;;2;279081636;279081636;-76
2022/04/10 05:23:41;;;;;;;;;21.00;19.50;;;;;;;;2;234067652;234067652;-75
2022/04/10 05:32:44;;;;;;;;;25.50;25.50;;;;;;;;2;279083004;279083004;-75
2022/04/10 05:40:59;;;;;;;;;22.00;22.00;;;;;;;;2;234068707;234068707;-75
2022/04/10 05:50:00;;;;;;;;;27.00;23.50;;;;;;;;2;279080246;279080246;-75
2022/04/10 05:58:15;;;;;;;;;29.00;29.00;;;;;;;;2;234067517;234067517;-75
2022/04/10 06:07:16;;;;;;;;;21.50;18.50;;;;;;;;2;279081565;279081565;-77
2022/04/10 06:15:31;;;;;;;;;42.00;23.00;;;;;;;;2;234067173;234067173;-76
2022/04/10 06:24:31;;;;;;;;;34.00;23.00;;;;;;;;2;279081295;279081295;-76
2022/04/10 06:32:47;;;;;;;;;31.00;19.00;;;;;;;;2;234068744;234068744;-76
2022/04/10 06:41:47;;;;;;;;;20.50;20.50;;;;;;;;2;279082074;279082074;-75
2022/04/10 06:50:03;;;;;;;;;26.50;26.50;;;;;;;;2;234069157;234069157;-76
2022/04/10 06:59:03;;;;;;;;;44.00;23.00;;;;;;;;2;279079137;279079137;-75
2022/04/10 07:07:19;;;;;;;;;29.00;26.00;;;;;;;;2;234069609;234069609;-75
2022/04/10 07:16:19;;;;;;;;;38.00;26.00;;;;;;;;2;279084871;279084871;-75
2022/04/10 07:24:34;;;;;;;;;29.00;20.50;;;;;;;;2;234068119;234068119;-76
2022/04/10 07:33:36;;;;;;;;;13.50;13.50;;;;;;;;2;279083927;279083927;-76
2022/04/10 07:41:51;;;;;;;;;10.50;10.50;;;;;;;;2;234070291;234070291;-76
2022/04/10 07:50:51;;;;;;;;;8.00;8.00;;;;;;;;2;279086874;279086874;-76
2022/04/10 07:59:07;;;;;;;;;9.50;9.50;;;;;;;;2;234070710;234070710;-77
2022/04/10 08:08:09;;;;;;;;;19.50;15.50;;;;;;;;2;279094735;279094735;-76
2022/04/10 08:16:25;;;;;;;;;8.00;8.00;;;;;;;;2;234068106;234068106;-74
2022/04/10 08:25:25;;;;;;;;;14.00;9.00;;;;;;;;2;279079225;279079225;-76
2022/04/10 08:33:41;;;;;;;;;2.50;2.50;;;;;;;;2;234069668;234069668;-76
2022/04/10 08:42:41;;;;;;;;;11.00;7.50;;;;;;;;2;279080664;279080664;-77
2022/04/10 08:50:57;;;;;;;;;7.50;7.50;;;;;;;;2;234069131;234069131;-76
2022/04/10 09:00:00;;;;;;;;;9.00;9.00;;;;;;;;2;279080287;279080287;-77
2022/04/10 09:08:18;;;;;;;;;3.00;3.00;;;;;;;;2;234068629;234068629;-77
2022/04/10 09:17:20;;;;;;;;;11.00;11.00;;;;;;;;2;279083021;279083021;-75
2022/04/10 09:25:42;;;;;;;;;8.00;8.00;;;;;;;;2;234069647;234069647;-77
2022/04/10 09:34:54;;;;;;;;;12.00;9.00;;;;;;;;2;279080857;279080857;-76
2022/04/10 09:43:10;;;;;;;;;3.00;3.00;;;;;;;;2;234072503;234072503;-76
2022/04/10 09:52:12;;;;;;;;;6.50;6.50;;;;;;;;2;279081816;279081816;-76
2022/04/10 10:00:27;;;;;;;;;12.50;12.50;;;;;;;;2;234068288;234068288;-76
2022/04/10 10:09:29;;;;;;;;;12.00;3.00;;;;;;;;2;279082005;279082005;-76
2022/04/10 10:21:06;;;;;;;;;10.00;8.50;;;;;;;;2;234069981;234069981;-77
2022/04/10 10:30:32;;;;;;;;;4.00;4.00;;;;;;;;2;279088769;279088769;-78
2022/04/10 10:38:54;;;;;;;;;4.50;4.50;;;;;;;;2;234070096;234070096;-77
2022/04/10 10:48:01;;;;;;;;;2.50;2.50;;;;;;;;2;279081141;279081141;-77
2022/04/10 10:56:17;;;;;;;;;3.00;3.00;;;;;;;;2;234073846;234073846;-77
2022/04/10 11:05:27;;;;;;;;;6.00;6.00;;;;;;;;2;279081470;279081470;-77
2022/04/10 11:13:43;;;;;;;;;16.00;4.00;;;;;;;;2;234072328;234072328;-77
2022/04/10 11:22:47;;;;;;;;;6.50;6.50;;;;;;;;2;279081607;279081607;-77
2022/04/10 11:31:02;;;;;;;;;5.50;5.50;;;;;;;;2;234068436;234068436;-77
2022/04/10 11:40:04;;;;;;;;;7.50;7.50;;;;;;;;2;279085304;279085304;-77
2022/04/10 11:48:20;;;;;;;;;3.50;3.50;;;;;;;;2;234070143;234070143;-77
2022/04/10 11:57:20;;;;;;;;;3.00;3.00;;;;;;;;2;279081903;279081903;-77
2022/04/10 12:05:36;;;;;;;;;6.50;6.50;;;;;;;;2;234067930;234067930;-75
2022/04/10 12:14:37;;;;;;;;;11.00;6.00;;;;;;;;2;279082697;279082697;-76
2022/04/10 12:22:53;;;;;;;;;2.00;2.00;;;;;;;;2;234069420;234069420;-76
2022/04/10 12:31:54;;;;;;;;;6.50;6.50;;;;;;;;2;279084686;279084686;-76
2022/04/10 12:40:10;;;;;;;;;7.00;7.00;;;;;;;;2;234072641;234072641;-76
2022/04/10 12:49:17;;;;;;;;;4.50;4.50;;;;;;;;2;279083566;279083566;-76
2022/04/10 12:57:32;;;;;;;;;3.00;3.00;;;;;;;;2;234076630;234076630;-76
2022/04/10 13:06:46;;;;;;;;;6.50;6.50;;;;;;;;2;279004355;279004355;-76
2022/04/10 13:15:01;;;;;;;;;8.00;8.00;;;;;;;;2;234073982;234073982;-83
2022/04/10 13:24:06;;;;;;;;;7.00;7.00;;;;;;;;2;279087036;279087036;-76
2022/04/10 13:32:22;;;;;;;;;5.50;5.50;;;;;;;;2;234069782;234069782;-76
2022/04/10 13:41:22;;;;;;;;;19.00;7.50;;;;;;;;2;279082798;279082798;-75
2022/04/10 13:49:38;;;;;;;;;6.50;6.50;;;;;;;;2;234070211;234070211;-75
2022/04/10 13:58:38;;;;;;;;;5.00;5.00;;;;;;;;2;279081195;279081195;-75
2022/04/10 14:06:54;;;;;;;;;15.00;6.00;;;;;;;;2;234070051;234070051;-76
2022/04/10 14:15:54;;;;;;;;;3.00;3.00;;;;;;;;2;279082873;279082873;-76
2022/04/10 14:24:10;;;;;;;;;12.50;7.50;;;;;;;;2;234074428;234074428;-76
2022/04/10 14:33:10;;;;;;;;;6.00;6.00;;;;;;;;2;279082435;279082435;-78
2022/04/10 14:41:25;;;;;;;;;5.00;5.00;;;;;;;;2;234068519;234068519;-78
2022/04/10 14:50:26;;;;;;;;;7.00;7.00;;;;;;;;2;279085569;279085569;-77
2022/04/10 14:58:41;;;;;;;;;4.50;4.50;;;;;;;;2;234067555;234067555;-77
2022/04/10 15:07:46;;;;;;;;;6.00;6.00;;;;;;;;2;279082743;279082743;-77
2022/04/10 15:16:05;;;;;;;;;4.00;4.00;;;;;;;;2;234071146;234071146;-76
2022/04/10 15:25:06;;;;;;;;;1.00;1.00;;;;;;;;2;279092059;279092059;-77
2022/04/10 15:33:21;;;;;;;;;4.00;4.00;;;;;;;;2;234077924;234077924;-76
2022/04/10 15:42:22;;;;;;;;;4.50;4.50;;;;;;;;2;279089919;279089919;-77
2022/04/10 15:50:39;;;;;;;;;6.00;6.00;;;;;;;;2;234073852;234073852;-78
2022/04/10 15:59:39;;;;;;;;;4.00;4.00;;;;;;;;2;279084820;279084820;-77
2022/04/10 16:07:55;;;;;;;;;9.00;9.00;;;;;;;;2;234074376;234074376;-77
2022/04/10 16:16:55;;;;;;;;;12.50;4.00;;;;;;;;2;279084836;279084836;-78
2022/04/10 16:25:11;;;;;;;;;5.00;5.00;;;;;;;;2;234074392;234074392;-77
2022/04/10 16:34:17;;;;;;;;;6.50;6.50;;;;;;;;2;279086782;279086782;-77
2022/04/10 16:42:33;;;;;;;;;3.00;3.00;;;;;;;;2;234072654;234072654;-77
2022/04/10 16:51:33;;;;;;;;;7.50;7.50;;;;;;;;2;279093710;279093710;-76
2022/04/10 16:59:49;;;;;;;;;6.50;6.50;;;;;;;;2;234073363;234073363;-76
2022/04/10 17:08:50;;;;;;;;;2.50;2.50;;;;;;;;2;279083609;279083609;-76
2022/04/10 17:17:07;;;;;;;;;8.00;8.00;;;;;;;;2;234075205;234075205;-76
2022/04/10 17:26:07;;;;;;;;;6.00;6.00;;;;;;;;2;279091417;279091417;-76
2022/04/10 17:34:23;;;;;;;;;3.50;3.50;;;;;;;;2;234076699;234076699;-76
2022/04/10 17:43:23;;;;;;;;;7.50;7.50;;;;;;;;2;279093764;279093764;-76
2022/04/10 17:51:40;;;;;;;;;6.50;3.50;;;;;;;;2;234076863;234076863;-76
2022/04/10 18:00:41;;;;;;;;;5.00;5.00;;;;;;;;2;279086060;279086060;-76
2022/04/10 18:08:56;;;;;;;;;11.00;5.50;;;;;;;;2;234071923;234071923;-76
2022/04/10 18:17:57;;;;;;;;;13.50;10.50;;;;;;;;2;279087698;279087698;-78
2022/04/10 18:26:17;;;;;;;;;6.50;6.50;;;;;;;;2;234071708;234071708;-77
2022/04/10 18:35:17;;;;;;;;;4.50;4.50;;;;;;;;2;279087870;279087870;-78
2022/04/10 18:43:33;;;;;;;;;5.50;5.50;;;;;;;;2;234073702;234073702;-77
2022/04/10 18:52:33;;;;;;;;;4.50;4.50;;;;;;;;2;279082811;279082811;-77
2022/04/10 19:00:49;;;;;;;;;11.00;11.00;;;;;;;;2;234071177;234071177;-75
2022/04/10 19:09:49;;;;;;;;;9.00;9.00;;;;;;;;2;279085549;279085549;-77
2022/04/10 19:18:07;;;;;;;;;6.00;6.00;;;;;;;;2;234068155;234068155;-75
2022/04/10 19:27:09;;;;;;;;;3.00;3.00;;;;;;;;2;279087356;279087356;-75
2022/04/10 19:35:24;;;;;;;;;7.00;7.00;;;;;;;;2;234070426;234070426;-76
2022/04/10 19:44:24;;;;;;;;;6.00;6.00;;;;;;;;2;279080504;279080504;-77
2022/04/10 20:01:59;;;;;;;;;9.00;9.00;;;;;;;;2;279081048;279081048;-77
2022/04/10 20:10:15;;;;;;;;;6.50;6.50;;;;;;;;2;234069588;234069588;-76
2022/04/10 20:19:16;;;;;;;;;7.00;7.00;;;;;;;;2;279084163;279084163;-77
2022/04/10 20:27:31;;;;;;;;;7.00;7.00;;;;;;;;2;234072531;234072531;-77
2022/04/10 20:36:32;;;;;;;;;10.50;10.50;;;;;;;;2;279082989;279082989;-77
2022/04/10 20:44:47;;;;;;;;;11.00;11.00;;;;;;;;2;234068715;234068715;-77
2022/04/10 20:53:48;;;;;;;;;9.00;9.00;;;;;;;;2;279079787;279079787;-77
2022/04/10 21:02:04;;;;;;;;;6.50;6.50;;;;;;;;2;234069526;234069526;-77
2022/04/10 21:11:05;;;;;;;;;12.00;12.00;;;;;;;;2;279080498;279080498;-77
2022/04/10 21:19:20;;;;;;;;;22.50;10.50;;;;;;;;2;234066944;234066944;-76
2022/04/10 21:28:21;;;;;;;;;12.50;12.50;;;;;;;;2;279083710;279083710;-77
2022/04/10 21:36:38;;;;;;;;;7.50;7.50;;;;;;;;2;234068527;234068527;-78
2022/04/10 21:45:38;;;;;;;;;8.50;8.50;;;;;;;;2;279079866;279079866;-77
2022/04/10 21:53:53;;;;;;;;;9.00;9.00;;;;;;;;2;234069485;234069485;-77
2022/04/10 22:02:54;;;;;;;;;6.50;6.50;;;;;;;;2;279080451;279080451;-78
2022/04/10 22:11:10;;;;;;;;;9.50;9.50;;;;;;;;2;234067908;234067908;-78
2022/04/10 22:20:11;;;;;;;;;10.50;10.50;;;;;;;;2;279080991;279080991;-78
2022/04/10 22:28:26;;;;;;;;;7.50;7.50;;;;;;;;2;234071101;234071101;-77
2022/04/10 22:37:26;;;;;;;;;7.50;7.50;;;;;;;;2;279079154;279079154;-76
2022/04/10 22:45:42;;;;;;;;;14.00;9.50;;;;;;;;2;234068931;234068931;-77
2022/04/10 22:54:42;;;;;;;;;6.00;6.00;;;;;;;;2;279083685;279083685;-77
2022/04/10 23:02:58;;;;;;;;;7.00;7.00;;;;;;;;2;234071819;234071819;-78
2022/04/10 23:11:58;;;;;;;;;19.50;8.50;;;;;;;;2;279082661;279082661;-77
2022/04/10 23:20:14;;;;;;;;;3.50;3.50;;;;;;;;2;234071795;234071795;-77
2022/04/10 23:29:14;;;;;;;;;6.50;6.50;;;;;;;;2;279083092;279083092;-77
2022/04/10 23:37:29;;;;;;;;;3.00;3.00;;;;;;;;2;234070030;234070030;-77
2022/04/10 23:46:30;;;;;;;;;6.00;6.00;;;;;;;;2;279084993;279084993;-77
2022/04/10 23:54:45;;;;;;;;;6.00;6.00;;;;;;;;2;234074149;234074149;-76
